createdAt,value
2023-04-15T00:02:20.948Z,50.29
2023-04-15T00:04:49.989Z,50.20
2023-04-15T00:07:17.996Z,50.10
2023-04-15T00:09:46.088Z,49.97
2023-04-15T00:12:15.459Z,50.27
2023-04-15T00:14:43.478Z,50.86
2023-04-15T00:17:11.138Z,50.56
2023-04-15T00:19:39.166Z,51.04
2023-04-15T00:22:07.063Z,51.07
2023-04-15T00:24:34.729Z,50.80
2023-04-15T00:27:03.090Z,51.55
2023-04-15T00:29:32.504Z,51.03
2023-04-15T00:32:00.205Z,51.79
2023-04-15T00:34:29.485Z,51.77
2023-04-15T00:36:57.192Z,51.09
2023-04-15T00:39:25.033Z,51.89
2023-04-15T00:41:54.047Z,51.38
2023-04-15T00:44:21.756Z,51.84
2023-04-15T00:46:52.972Z,51.72
2023-04-15T00:49:21.388Z,52.68
2023-04-15T00:51:49.100Z,52.53
2023-04-15T00:54:17.253Z,52.69
2023-04-15T00:56:45.750Z,52.20
2023-04-15T00:59:13.460Z,52.40
2023-04-15T01:01:41.803Z,52.79
2023-04-15T01:04:15.282Z,52.56
2023-04-15T01:06:43.040Z,53.00
2023-04-15T01:09:11.078Z,52.98
2023-04-15T01:14:28.813Z,53.11
2023-04-15T01:16:56.503Z,53.05
2023-04-15T01:19:26.082Z,53.78
2023-04-15T01:21:54.187Z,52.19
2023-04-15T01:24:22.080Z,53.59
2023-04-15T01:26:51.308Z,54.08
2023-04-15T01:29:20.062Z,54.83
2023-04-15T01:31:52.591Z,54.74
2023-04-15T01:34:21.128Z,54.43
2023-04-15T01:36:49.133Z,55.28
2023-04-15T01:39:16.862Z,55.94
2023-04-15T01:41:45.219Z,56.04
2023-04-15T01:44:14.304Z,56.56
2023-04-15T01:46:42.227Z,56.50
2023-04-15T01:49:09.952Z,55.95
2023-04-15T01:51:37.637Z,56.42
2023-04-15T01:54:05.386Z,56.40
2023-04-15T01:56:33.854Z,56.30
2023-04-15T01:59:01.858Z,57.07
2023-04-15T02:01:31.854Z,56.85
2023-04-15T02:04:00.155Z,57.05
2023-04-15T02:06:28.153Z,57.09
2023-04-15T02:08:55.841Z,56.92
2023-04-15T02:11:24.296Z,57.23
2023-04-15T02:13:52.304Z,57.37
2023-04-15T02:16:20.567Z,57.13
2023-04-15T02:18:50.249Z,57.36
2023-04-15T02:21:18.939Z,55.48
2023-04-15T02:23:48.273Z,57.12
2023-04-15T02:26:16.573Z,57.49
2023-04-15T02:28:44.308Z,57.75
2023-04-15T02:31:11.990Z,57.60
2023-04-15T02:33:40.401Z,57.60
2023-04-15T02:36:11.425Z,57.66
2023-04-15T02:38:41.319Z,57.16
2023-04-15T02:41:10.532Z,57.57
2023-04-15T02:43:39.931Z,57.34
2023-04-15T02:46:08.820Z,57.66
2023-04-15T02:48:36.915Z,57.92
2023-04-15T02:51:21.290Z,57.00
2023-04-15T02:53:49.718Z,57.96
2023-04-15T02:56:19.327Z,57.45
2023-04-15T02:58:47.161Z,56.70
2023-04-15T03:01:15.061Z,57.57
2023-04-15T03:03:43.025Z,57.81
2023-04-15T03:06:11.460Z,57.99
2023-04-15T03:08:40.505Z,58.04
2023-04-15T03:11:09.639Z,57.94
2023-04-15T03:13:40.190Z,57.84
2023-04-15T03:16:08.508Z,58.31
2023-04-15T03:18:36.314Z,58.37
2023-04-15T03:21:04.655Z,58.63
2023-04-15T03:23:32.546Z,58.55
2023-04-15T03:26:05.565Z,58.29
2023-04-15T03:28:33.668Z,58.11
2023-04-15T03:31:01.644Z,58.05
2023-04-15T03:33:29.898Z,58.42
2023-04-15T03:35:57.603Z,58.26
2023-04-15T03:38:25.439Z,58.52
2023-04-15T03:40:53.761Z,58.68
2023-04-15T03:43:22.824Z,58.59
2023-04-15T03:45:50.728Z,58.96
2023-04-15T03:48:18.995Z,59.04
2023-04-15T03:50:47.099Z,59.15
2023-04-15T03:53:14.981Z,58.63
2023-04-15T03:55:43.840Z,59.12
2023-04-15T03:58:12.924Z,59.28
2023-04-15T04:00:42.483Z,58.79
2023-04-15T04:03:10.894Z,59.48
2023-04-15T04:05:41.457Z,58.99
2023-04-15T04:08:09.170Z,59.55
2023-04-15T04:10:37.486Z,59.42
2023-04-15T04:13:05.143Z,59.59
2023-04-15T04:15:32.890Z,59.31
2023-04-15T04:18:02.895Z,59.72
2023-04-15T04:20:31.977Z,59.51
2023-04-15T04:22:59.828Z,59.16
2023-04-15T04:25:28.041Z,59.56
2023-04-15T04:27:56.003Z,59.22
2023-04-15T04:30:23.721Z,58.90
2023-04-15T04:32:52.270Z,59.16
2023-04-15T04:35:21.931Z,58.95
2023-04-15T04:37:49.442Z,58.72
2023-04-15T04:40:17.959Z,58.21
2023-04-15T04:42:46.003Z,58.37
2023-04-15T04:45:14.116Z,58.11
2023-04-15T04:47:42.399Z,57.87
2023-04-15T04:50:10.588Z,58.09
2023-04-15T04:52:39.784Z,58.83
2023-04-15T04:55:09.038Z,58.51
2023-04-15T04:57:37.723Z,57.93
2023-04-15T05:00:06.640Z,57.59
2023-04-15T05:02:35.546Z,57.53
2023-04-15T05:05:03.385Z,57.86
2023-04-15T05:07:31.176Z,58.06
2023-04-15T05:10:00.870Z,58.23
2023-04-15T05:12:28.407Z,58.04
2023-04-15T05:14:56.089Z,57.98
2023-04-15T05:17:24.370Z,58.38
2023-04-15T05:19:52.082Z,58.56
2023-04-15T05:22:19.764Z,58.49
2023-04-15T05:24:48.189Z,58.09
2023-04-15T05:27:17.215Z,58.30
2023-04-15T05:29:44.890Z,58.28
2023-04-15T05:32:13.213Z,58.27
2023-04-15T05:34:40.987Z,58.89
2023-04-15T05:37:08.686Z,59.13
2023-04-15T05:39:36.939Z,59.15
2023-04-15T05:42:05.948Z,59.59
2023-04-15T05:44:35.417Z,59.56
2023-04-15T05:47:03.965Z,59.70
2023-04-15T05:49:31.915Z,59.07
2023-04-15T05:51:59.654Z,59.12
2023-04-15T05:54:28.469Z,59.29
2023-04-15T05:56:56.391Z,59.36
2023-04-15T05:59:24.094Z,59.28
2023-04-15T06:01:54.174Z,59.76
2023-04-15T06:04:22.029Z,60.23
2023-04-15T06:06:49.841Z,59.80
2023-04-15T06:09:17.913Z,59.94
2023-04-15T06:11:45.647Z,60.19
2023-04-15T06:14:13.325Z,60.02
2023-04-15T06:16:41.514Z,59.46
2023-04-15T06:19:10.620Z,59.24
2023-04-15T06:21:38.352Z,59.28
2023-04-15T06:24:06.971Z,59.32
2023-04-15T06:26:34.715Z,59.04
2023-04-15T06:29:04.170Z,59.91
2023-04-15T06:31:32.559Z,59.41
2023-04-15T06:34:00.694Z,59.33
2023-04-15T06:36:29.774Z,59.44
2023-04-15T06:38:58.193Z,58.95
2023-04-15T06:41:26.317Z,59.44
2023-04-15T06:43:54.004Z,59.35
2023-04-15T06:46:22.728Z,59.44
2023-04-15T06:48:50.450Z,57.77
2023-04-15T06:51:18.194Z,58.33
2023-04-15T06:53:47.396Z,58.24
2023-04-15T06:56:15.096Z,58.17
2023-04-15T06:58:42.780Z,56.62
2023-04-15T07:01:10.966Z,56.85
2023-04-15T07:03:39.004Z,56.62
2023-04-15T07:06:07.653Z,56.32
2023-04-15T07:08:35.870Z,55.41
2023-04-15T07:11:04.917Z,55.83
2023-04-15T07:13:33.397Z,54.89
2023-04-15T07:16:01.803Z,54.39
2023-04-15T07:18:29.503Z,54.78
2023-04-15T07:20:57.473Z,54.84
2023-04-15T07:23:25.789Z,55.43
2023-04-15T07:25:53.745Z,53.17
2023-04-15T07:28:22.827Z,52.72
2023-04-15T07:30:51.078Z,52.76
2023-04-15T07:33:18.795Z,52.01
2023-04-15T07:35:47.113Z,52.73
2023-04-15T07:38:15.380Z,52.80
2023-04-15T07:40:43.400Z,52.42
2023-04-15T07:43:11.137Z,51.43
2023-04-15T07:45:40.851Z,51.48
2023-04-15T07:48:08.363Z,51.57
2023-04-15T07:50:36.128Z,51.96
2023-04-15T07:53:04.539Z,51.14
2023-04-15T07:55:32.217Z,51.21
2023-04-15T07:57:59.883Z,50.80
2023-04-15T08:00:28.433Z,50.93
2023-04-15T08:02:59.597Z,51.46
2023-04-15T08:05:27.367Z,50.38
2023-04-15T08:07:55.558Z,51.00
2023-04-15T08:10:23.699Z,51.24
2023-04-15T08:12:54.279Z,49.83
2023-04-15T08:15:22.717Z,50.40
2023-04-15T08:17:50.500Z,49.92
2023-04-15T08:20:21.384Z,50.41
2023-04-15T08:22:52.253Z,49.99
2023-04-15T08:25:20.267Z,50.27
2023-04-15T08:27:48.110Z,50.76
2023-04-15T08:30:16.592Z,50.03
2023-04-15T08:32:47.519Z,50.72
2023-04-15T08:35:15.435Z,49.95
2023-04-15T08:37:44.779Z,50.10
2023-04-15T08:40:13.576Z,48.72
2023-04-15T08:42:45.812Z,49.22
2023-04-15T08:45:13.620Z,49.40
2023-04-15T08:47:42.319Z,49.59
2023-04-15T08:50:11.925Z,49.43
2023-04-15T08:52:39.916Z,48.77
2023-04-15T08:55:10.596Z,47.86
2023-04-15T08:57:40.029Z,48.78
2023-04-15T09:00:09.357Z,48.11
2023-04-15T09:02:37.497Z,48.53
2023-04-15T09:05:06.996Z,47.74
2023-04-15T09:07:35.713Z,46.76
2023-04-15T09:10:04.766Z,46.66
2023-04-15T09:12:36.157Z,47.44
2023-04-15T09:15:04.008Z,46.43
2023-04-15T09:17:34.433Z,46.25
2023-04-15T09:20:14.162Z,46.38
2023-04-15T09:22:42.262Z,46.67
2023-04-15T09:25:28.776Z,45.69
2023-04-15T09:27:59.075Z,45.32
2023-04-15T09:30:27.051Z,44.93
2023-04-15T09:32:56.738Z,42.66
2023-04-15T09:35:25.632Z,42.66
2023-04-15T09:37:54.529Z,42.53
2023-04-15T09:40:36.581Z,40.50
2023-04-15T09:43:06.492Z,41.32
2023-04-15T09:45:35.697Z,40.26
2023-04-15T09:48:18.138Z,39.97
2023-04-15T09:50:45.995Z,41.30
2023-04-15T09:53:18.132Z,40.70
2023-04-15T09:55:47.448Z,39.70
2023-04-15T09:58:23.786Z,40.79
2023-04-15T10:00:53.160Z,40.48
2023-04-15T10:03:22.700Z,41.33
2023-04-15T10:05:52.258Z,41.28
2023-04-15T10:08:22.377Z,41.52
2023-04-15T10:10:52.381Z,41.18
2023-04-15T10:13:24.704Z,41.64
2023-04-15T10:15:57.859Z,41.24
2023-04-15T10:18:27.483Z,41.39
2023-04-15T10:20:55.528Z,41.44
2023-04-15T10:23:24.991Z,41.07
2023-04-15T10:25:54.366Z,40.89
2023-04-15T10:28:23.801Z,40.99
2023-04-15T10:30:52.864Z,39.11
2023-04-15T10:33:23.110Z,37.75
2023-04-15T10:35:52.019Z,37.51
2023-04-15T10:38:37.898Z,37.72
2023-04-15T10:41:18.747Z,39.00
2023-04-15T10:43:54.183Z,37.53
2023-04-15T10:46:35.909Z,38.92
2023-04-15T10:49:09.750Z,38.13
2023-04-15T10:51:41.601Z,38.91
2023-04-15T10:54:14.761Z,35.32
2023-04-15T10:56:43.763Z,36.32
2023-04-15T10:59:13.132Z,37.02
2023-04-15T11:01:55.487Z,35.57
2023-04-15T11:04:57.514Z,35.58
2023-04-15T11:07:36.171Z,35.04
2023-04-15T11:10:04.782Z,35.95
2023-04-15T11:12:37.166Z,35.10
2023-04-15T11:15:29.426Z,33.71
2023-04-15T11:17:58.309Z,30.84
2023-04-15T11:20:26.155Z,33.42
2023-04-15T11:23:14.495Z,31.54
2023-04-15T11:25:44.316Z,29.64
2023-04-15T11:28:13.546Z,27.63
2023-04-15T11:30:43.640Z,30.20
2023-04-15T11:33:14.397Z,31.25
2023-04-15T11:35:42.891Z,30.75
2023-04-15T11:38:12.165Z,31.32
2023-04-15T11:40:41.012Z,32.32
2023-04-15T11:43:09.865Z,31.35
2023-04-15T11:45:38.356Z,32.17
2023-04-15T11:48:12.497Z,31.11
2023-04-15T11:50:41.582Z,32.00
2023-04-15T11:53:10.822Z,28.95
2023-04-15T11:55:47.473Z,29.84
2023-04-15T11:58:16.896Z,31.06
2023-04-15T12:00:49.603Z,30.73
2023-04-15T12:03:24.196Z,31.93
2023-04-15T12:06:11.657Z,30.47
2023-04-15T12:09:01.229Z,30.11
2023-04-15T12:11:31.034Z,29.80
2023-04-15T12:14:00.946Z,29.37
2023-04-15T12:16:29.725Z,29.41
2023-04-15T12:19:01.173Z,30.27
2023-04-15T12:21:34.493Z,30.05
2023-04-15T12:24:05.333Z,27.91
2023-04-15T12:26:36.864Z,28.83
2023-04-15T12:29:06.377Z,29.18
2023-04-15T12:31:34.110Z,28.80
2023-04-15T12:34:03.833Z,28.10
2023-04-15T12:36:36.940Z,28.19
2023-04-15T12:39:05.316Z,28.88
2023-04-15T12:41:33.082Z,29.05
2023-04-15T12:44:01.531Z,28.78
2023-04-15T12:46:29.408Z,28.50
2023-04-15T12:48:57.921Z,28.88
2023-04-15T12:51:27.893Z,29.95
2023-04-15T12:53:55.573Z,30.14
2023-04-15T12:56:23.899Z,30.23
2023-04-15T12:58:52.396Z,29.01
2023-04-15T13:01:20.148Z,29.43
2023-04-15T13:03:48.132Z,29.67
2023-04-15T13:06:16.573Z,29.91
2023-04-15T13:08:57.377Z,28.55
2023-04-15T13:11:26.413Z,28.89
2023-04-15T13:13:54.066Z,29.55
2023-04-15T13:16:21.938Z,28.78
2023-04-15T13:18:50.078Z,28.66
2023-04-15T13:21:17.809Z,28.74
2023-04-15T13:23:47.148Z,28.11
2023-04-15T13:26:15.369Z,29.02
2023-04-15T13:28:43.089Z,29.37
2023-04-15T13:31:10.870Z,28.83
2023-04-15T13:33:39.133Z,27.79
2023-04-15T13:36:07.302Z,29.09
2023-04-15T13:38:34.995Z,29.38
2023-04-15T13:41:04.606Z,29.54
2023-04-15T13:43:34.201Z,30.73
2023-04-15T13:46:01.907Z,31.07
2023-04-15T13:48:30.380Z,31.74
2023-04-15T13:50:58.065Z,31.69
2023-04-15T13:53:33.964Z,31.84
2023-04-15T13:56:10.107Z,30.92
2023-04-15T13:58:38.519Z,30.96
2023-04-15T14:01:07.572Z,31.29
2023-04-15T14:03:36.985Z,31.01
2023-04-15T14:06:05.804Z,30.66
2023-04-15T14:08:33.766Z,30.23
2023-04-15T14:11:02.356Z,30.13
2023-04-15T14:13:31.514Z,30.40
2023-04-15T14:15:59.289Z,30.68
2023-04-15T14:18:27.579Z,31.08
2023-04-15T14:20:55.565Z,30.95
2023-04-15T14:23:23.320Z,31.34
2023-04-15T14:25:52.092Z,31.23
2023-04-15T14:28:19.804Z,31.85
2023-04-15T14:30:48.885Z,32.08
2023-04-15T14:33:17.422Z,31.68
2023-04-15T14:35:45.094Z,31.34
2023-04-15T14:38:12.771Z,31.23
2023-04-15T14:40:43.158Z,31.09
2023-04-15T14:43:10.872Z,30.59
2023-04-15T14:45:40.676Z,30.92
2023-04-15T14:48:13.204Z,30.87
2023-04-15T14:50:41.979Z,31.12
2023-04-15T14:53:10.032Z,31.27
2023-04-15T14:55:38.317Z,30.45
2023-04-15T14:58:08.152Z,31.45
2023-04-15T15:00:36.154Z,31.84
2023-04-15T15:03:04.579Z,32.31
2023-04-15T15:05:33.762Z,32.45
2023-04-15T15:08:01.519Z,32.96
2023-04-15T15:10:39.502Z,32.96
2023-04-15T15:13:17.767Z,33.52
2023-04-15T15:15:46.276Z,34.19
2023-04-15T15:18:14.045Z,34.48
2023-04-15T15:20:43.259Z,34.57
2023-04-15T15:23:11.292Z,35.38
2023-04-15T15:25:39.048Z,36.11
2023-04-15T15:28:07.629Z,36.11
2023-04-15T15:30:35.858Z,36.36
2023-04-15T15:33:03.613Z,36.50
2023-04-15T15:35:31.423Z,36.42
2023-04-15T15:38:01.315Z,36.81
2023-04-15T15:40:29.415Z,36.47
2023-04-15T15:42:57.092Z,36.89
2023-04-15T15:45:25.452Z,36.60
2023-04-15T15:47:53.228Z,37.02
2023-04-15T15:50:21.619Z,37.13
2023-04-15T15:52:49.883Z,36.24
2023-04-15T15:55:19.131Z,36.27
2023-04-15T15:57:46.796Z,35.99
2023-04-15T16:00:15.939Z,36.55
2023-04-15T16:05:14.972Z,38.57
2023-04-15T16:10:32.493Z,40.95
2023-04-15T16:13:00.752Z,41.11
2023-04-15T16:15:28.457Z,41.56
2023-04-15T16:17:56.152Z,41.36
2023-04-15T16:20:24.674Z,43.30
2023-04-15T16:22:52.551Z,43.03
2023-04-15T16:25:20.336Z,42.04
2023-04-15T16:27:58.837Z,41.95
2023-04-15T16:30:28.981Z,41.63
2023-04-15T16:32:57.588Z,41.40
2023-04-15T16:35:25.314Z,41.43
2023-04-15T16:37:52.978Z,41.03
2023-04-15T16:40:20.942Z,41.45
2023-04-15T16:42:50.575Z,41.13
2023-04-15T16:45:18.114Z,40.37
2023-04-15T16:47:45.985Z,39.83
2023-04-15T16:50:13.684Z,39.92
2023-04-15T16:52:41.443Z,39.51
2023-04-15T16:55:09.837Z,39.18
2023-04-15T16:58:00.828Z,39.17
2023-04-15T17:00:27.273Z,38.37
2023-04-15T17:02:56.207Z,38.58
2023-04-15T17:05:24.034Z,38.42
2023-04-15T17:07:51.856Z,38.61
2023-04-15T17:10:19.569Z,38.82
2023-04-15T17:12:47.272Z,38.59
2023-04-15T17:15:15.114Z,38.01
2023-04-15T17:17:44.191Z,38.48
2023-04-15T17:20:12.658Z,38.75
2023-04-15T17:22:40.561Z,39.10
2023-04-15T17:25:09.159Z,39.75
2023-04-15T17:27:38.590Z,39.83
2023-04-15T17:30:07.800Z,39.57
2023-04-15T17:32:35.749Z,40.26
2023-04-15T17:35:06.296Z,40.41
2023-04-15T17:37:34.482Z,40.38
2023-04-15T17:40:02.317Z,41.78
2023-04-15T17:42:30.044Z,42.94
2023-04-15T17:44:57.989Z,43.02
2023-04-15T17:47:25.788Z,43.60
2023-04-15T17:49:53.500Z,44.19
2023-04-15T17:52:22.817Z,44.59
2023-04-15T17:54:50.645Z,44.90
2023-04-15T17:57:18.385Z,44.97
2023-04-15T17:59:48.018Z,44.71
2023-04-15T18:02:15.744Z,45.57
2023-04-15T18:04:43.818Z,45.77
2023-04-15T18:07:11.779Z,45.73
2023-04-15T18:09:41.469Z,46.64
2023-04-15T18:12:09.171Z,46.84
2023-04-15T18:14:37.383Z,46.37
2023-04-15T18:17:05.199Z,46.59
2023-04-15T18:19:32.926Z,46.02
2023-04-15T18:22:01.033Z,46.23
2023-04-15T18:24:29.027Z,47.93
2023-04-15T18:26:58.988Z,47.84
2023-04-15T18:29:26.945Z,46.76
2023-04-15T18:31:54.754Z,48.07
2023-04-15T18:34:22.554Z,47.73
2023-04-15T18:36:50.675Z,47.75
2023-04-15T18:39:18.434Z,48.37
2023-04-15T18:41:46.146Z,47.99
2023-04-15T18:44:15.616Z,49.00
2023-04-15T18:46:43.321Z,48.80
2023-04-15T18:49:13.064Z,48.73
2023-04-15T18:51:41.963Z,48.67
2023-04-15T18:54:09.664Z,48.71
2023-04-15T18:56:37.404Z,48.98
2023-04-15T18:59:08.576Z,48.66
2023-04-15T19:01:54.553Z,48.84
2023-04-15T19:04:22.526Z,49.35
2023-04-15T19:06:50.310Z,48.82
2023-04-15T19:09:18.013Z,48.92
2023-04-15T19:11:46.153Z,48.77
2023-04-15T19:14:13.837Z,49.08
2023-04-15T19:16:41.561Z,49.41
2023-04-15T19:19:10.948Z,49.50
2023-04-15T19:21:38.655Z,49.66
2023-04-15T19:24:06.762Z,50.01
2023-04-15T19:26:35.043Z,49.64
2023-04-15T19:29:02.907Z,49.42
2023-04-15T19:31:30.787Z,49.36
2023-04-15T19:33:58.862Z,49.97
2023-04-15T19:36:28.473Z,50.00
2023-04-15T19:38:56.057Z,51.24
2023-04-15T19:41:24.092Z,50.51
2023-04-15T19:43:51.837Z,50.76
2023-04-15T19:46:19.797Z,50.46
2023-04-15T19:48:47.577Z,51.78
2023-04-15T19:51:15.479Z,51.27
2023-04-15T19:53:44.533Z,51.22
2023-04-15T19:56:12.893Z,51.69
2023-04-15T19:58:40.554Z,51.42
2023-04-15T20:01:08.260Z,52.58
2023-04-15T20:03:36.699Z,52.21
2023-04-15T20:06:04.647Z,52.27
2023-04-15T20:08:32.320Z,52.97
2023-04-15T20:11:02.327Z,52.59
2023-04-15T20:13:30.105Z,53.08
2023-04-15T20:15:57.809Z,52.47
2023-04-15T20:18:26.081Z,53.39
2023-04-15T20:20:53.919Z,52.97
2023-04-15T20:23:21.655Z,52.98
2023-04-15T20:25:49.608Z,52.56
2023-04-15T20:28:19.282Z,52.75
2023-04-15T20:30:47.140Z,53.05
2023-04-15T20:33:15.339Z,53.75
2023-04-15T20:35:42.987Z,53.34
2023-04-15T20:38:10.845Z,53.11
2023-04-15T20:43:06.371Z,53.28
2023-04-15T20:45:35.510Z,53.80
2023-04-15T20:48:03.412Z,53.56
2023-04-15T20:50:31.261Z,53.89
2023-04-15T20:52:58.990Z,54.17
2023-04-15T20:55:28.329Z,54.43
2023-04-15T20:57:58.270Z,54.47
2023-04-15T21:00:26.229Z,54.09
2023-04-15T21:02:55.377Z,54.42
2023-04-15T21:05:23.166Z,53.96
2023-04-15T21:07:51.038Z,53.94
2023-04-15T21:10:18.865Z,54.31
2023-04-15T21:12:46.804Z,54.04
2023-04-15T21:15:14.530Z,54.08
2023-04-15T21:17:42.225Z,54.32
2023-04-15T21:20:12.662Z,54.68
2023-04-15T21:22:40.949Z,54.38
2023-04-15T21:25:09.632Z,54.44
2023-04-15T21:27:37.396Z,54.45
2023-04-15T21:30:06.317Z,54.47
2023-04-15T21:32:34.097Z,54.35
2023-04-15T21:35:01.956Z,54.45
2023-04-15T21:37:31.009Z,54.12
2023-04-15T21:39:58.662Z,54.71
2023-04-15T21:42:26.532Z,54.40
2023-04-15T21:44:54.808Z,54.85
2023-04-15T21:47:22.559Z,54.80
2023-04-15T21:49:50.381Z,54.81
2023-04-15T21:52:18.622Z,54.84
2023-04-15T21:54:47.846Z,54.92
2023-04-15T21:57:15.610Z,55.04
2023-04-15T21:59:43.308Z,55.35
2023-04-15T22:02:11.537Z,55.18
2023-04-15T22:04:39.304Z,55.64
2023-04-15T22:07:07.531Z,55.23
2023-04-15T22:09:35.214Z,55.19
2023-04-15T22:12:05.430Z,55.78
2023-04-15T22:14:33.594Z,55.74
2023-04-15T22:17:01.865Z,55.46
2023-04-15T22:19:29.581Z,54.98
2023-04-15T22:21:57.694Z,55.65
2023-04-15T22:24:32.285Z,55.53
2023-04-15T22:27:10.448Z,55.85
2023-04-15T22:29:38.139Z,55.82
2023-04-15T22:32:05.974Z,55.80
2023-04-15T22:34:34.161Z,55.71
2023-04-15T22:37:01.852Z,55.78
2023-04-15T22:39:29.555Z,55.42
2023-04-15T22:41:58.237Z,55.73
2023-04-15T22:44:27.300Z,55.75
2023-04-15T22:46:56.172Z,56.36
2023-04-15T22:49:24.495Z,56.45
2023-04-15T22:51:52.191Z,56.30
2023-04-15T22:54:20.614Z,55.94
2023-04-15T22:56:48.281Z,55.71
2023-04-15T22:59:15.962Z,55.88
2023-04-15T23:01:45.093Z,55.68
2023-04-15T23:04:25.125Z,56.09
2023-04-15T23:06:55.764Z,56.42
2023-04-15T23:09:23.900Z,56.10
2023-04-15T23:11:51.589Z,55.99
2023-04-15T23:14:19.290Z,56.04
2023-04-15T23:16:48.792Z,56.19
2023-04-15T23:19:16.560Z,56.38
2023-04-15T23:21:44.380Z,56.06
2023-04-15T23:24:13.417Z,56.41
2023-04-15T23:26:41.245Z,56.47
2023-04-15T23:29:09.562Z,56.50
2023-04-15T23:31:38.081Z,56.20
2023-04-15T23:34:07.187Z,55.80
2023-04-15T23:36:34.864Z,55.83
2023-04-15T23:39:03.033Z,56.03
2023-04-15T23:41:30.697Z,56.36
2023-04-15T23:43:58.403Z,56.46
2023-04-15T23:46:26.689Z,56.37
2023-04-15T23:48:54.418Z,56.17
2023-04-15T23:51:23.480Z,56.14
2023-04-15T23:53:53.115Z,55.90
2023-04-15T23:56:20.988Z,56.00
2023-04-15T23:58:48.661Z,55.96
